Time;durP1;ratioP1;P1;durP2;ratioP2;P2;SDS_P1;SDS_P2;PMS_P1;PMS_P2;Temp;Humidity;BMP_temperature;BMP_pressure;BME280_temperature;BME280_humidity;BME280_pressure;Samples;Min_cycle;Max_cycle;Signal;HPM_P1;HPM_P2
2022/07/29 00:00:05;;;;;;;3.13;1.88;;;;;;;17.21;62.57;101570.94;5070203;28;20406;-68
2022/07/29 00:02:32;;;;;;;2.35;1.65;;;;;;;17.16;61.21;101560.84;5070635;28;20960;-68
2022/07/29 00:04:58;;;;;;;7.70;1.70;;;;;;;17.19;61.48;101564.97;5070801;28;20462;-68
2022/07/29 00:07:23;;;;;;;2.47;1.65;;;;;;;17.18;62.09;101564.13;5070709;28;20036;-68
2022/07/29 00:09:49;;;;;;;3.95;2.03;;;;;;;17.17;61.89;101558.97;5070476;28;20519;-68
2022/07/29 00:12:14;;;;;;;3.33;2.03;;;;;;;17.14;62.44;101559.44;5070052;28;20043;-68
2022/07/29 00:14:39;;;;;;;6.53;2.03;;;;;;;17.16;61.44;101568.09;5070516;28;20107;-68
2022/07/29 00:17:05;;;;;;;5.47;1.65;;;;;;;17.15;62.18;101566.47;5070552;28;20032;-68
2022/07/29 00:19:30;;;;;;;2.70;1.58;;;;;;;17.15;61.87;101567.28;5070284;28;20036;-68
2022/07/29 00:21:55;;;;;;;4.55;1.55;;;;;;;17.14;62.36;101571.03;5070483;28;20395;-68
2022/07/29 00:24:21;;;;;;;3.85;2.33;;;;;;;17.14;61.90;101565.66;5070461;28;20418;-68
2022/07/29 00:26:46;;;;;;;4.07;2.00;;;;;;;17.13;62.69;101561.28;5070420;28;20387;-68
2022/07/29 00:29:11;;;;;;;6.10;2.70;;;;;;;17.12;62.78;101558.81;5070106;28;20056;-68
2022/07/29 00:31:37;;;;;;;4.70;1.60;;;;;;;17.08;62.12;101553.88;5069572;28;20077;-68
2022/07/29 00:34:02;;;;;;;2.90;1.55;;;;;;;17.03;63.39;101540.25;5070154;28;20074;-68
2022/07/29 00:36:28;;;;;;;4.00;1.50;;;;;;;17.03;63.88;101545.63;5070060;28;20044;-68
2022/07/29 00:38:53;;;;;;;6.47;2.35;;;;;;;17.00;63.17;101551.47;5070095;28;20107;-68
2022/07/29 00:41:19;;;;;;;4.50;1.80;;;;;;;17.00;64.08;101556.03;5070097;28;20028;-68
2022/07/29 00:43:44;;;;;;;2.42;1.60;;;;;;;16.97;64.64;101564.56;5070125;28;20078;-68
2022/07/29 00:46:11;;;;;;;5.25;2.28;;;;;;;16.91;64.82;101554.66;5069954;28;20114;-68
2022/07/29 00:48:37;;;;;;;5.68;2.10;;;;;;;16.87;65.50;101551.56;5069845;28;20038;-68
2022/07/29 00:51:04;;;;;;;2.13;2.00;;;;;;;16.79;65.52;101560.78;5069144;28;20033;-68
2022/07/29 00:53:30;;;;;;;4.65;2.00;;;;;;;16.75;66.08;101562.22;5069684;28;20027;-68
2022/07/29 00:55:57;;;;;;;4.95;1.83;;;;;;;16.73;65.75;101563.50;5069837;28;20032;-64
2022/07/29 00:58:23;;;;;;;4.88;1.52;;;;;;;16.72;65.96;101570.75;5069627;28;20040;-65
2022/07/29 01:00:50;;;;;;;3.03;1.70;;;;;;;16.74;69.80;101574.06;5069554;28;20028;-64
2022/07/29 01:03:15;;;;;;;4.57;2.85;;;;;;;16.75;71.74;101588.34;5069489;28;20035;-65
2022/07/29 01:05:44;;;;;;;5.82;2.13;;;;;;;16.73;69.48;101601.22;5069652;28;20029;-64
2022/07/29 01:08:12;;;;;;;3.38;2.13;;;;;;;16.74;68.67;101608.22;5069404;28;20067;-65
2022/07/29 01:10:39;;;;;;;3.55;2.70;;;;;;;16.78;68.43;101622.97;5069494;28;20055;-64
2022/07/29 01:13:05;;;;;;;3.55;1.67;;;;;;;16.78;68.30;101631.84;5069118;28;20031;-64
2022/07/29 01:15:31;;;;;;;5.30;2.33;;;;;;;16.77;67.47;101626.69;5068417;28;20078;-65
2022/07/29 01:18:17;;;;;;;3.90;1.77;;;;;;;16.80;66.77;101616.31;5069448;28;20036;-64
2022/07/29 01:21:23;;;;;;;6.35;1.90;;;;;;;16.79;67.27;101617.38;5069467;28;20040;-64
2022/07/29 01:24:19;;;;;;;2.97;2.55;;;;;;;16.77;67.22;101611.38;5069238;28;20441;-65
2022/07/29 01:27:02;;;;;;;3.75;2.10;;;;;;;16.76;67.68;101590.00;5069424;28;20028;-65
2022/07/29 01:29:41;;;;;;;3.15;1.65;;;;;;;16.75;68.00;101591.88;5069214;28;20084;-64
2022/07/29 01:32:18;;;;;;;3.03;2.17;;;;;;;16.73;69.21;101585.03;5069187;28;20435;-65
2022/07/29 01:34:55;;;;;;;5.00;2.85;;;;;;;16.70;68.83;101580.09;5068924;28;20025;-64
2022/07/29 01:37:29;;;;;;;4.07;2.00;;;;;;;16.62;71.38;101571.25;5069170;28;20097;-64
2022/07/29 01:39:57;;;;;;;3.25;2.58;;;;;;;16.50;72.07;101554.13;5069233;28;20031;-64
2022/07/29 01:42:33;;;;;;;7.15;2.55;;;;;;;16.35;74.03;101538.31;5069223;28;20032;-64
2022/07/29 01:45:06;;;;;;;6.30;3.05;;;;;;;16.16;75.76;101518.53;5069241;28;20028;-64
2022/07/29 01:47:37;;;;;;;5.03;2.60;;;;;;;15.92;75.92;101516.63;5069045;28;20056;-64
2022/07/29 01:50:07;;;;;;;6.73;3.10;;;;;;;15.61;77.47;101517.38;5068994;28;20123;-64
2022/07/29 01:52:56;;;;;;;7.35;2.97;;;;;;;15.34;77.53;101525.53;5068988;28;20321;-64
2022/07/29 01:55:26;;;;;;;3.63;2.85;;;;;;;15.18;80.70;101520.63;5069134;28;20098;-64
2022/07/29 01:57:53;;;;;;;4.10;3.15;;;;;;;15.08;81.41;101513.81;5069140;28;20032;-64
2022/07/29 02:00:20;;;;;;;6.75;3.50;;;;;;;14.88;84.26;101505.81;5068991;28;20071;-64
2022/07/29 02:02:47;;;;;;;3.65;2.88;;;;;;;14.68;85.37;101505.84;5072650;28;20036;-64
2022/07/29 02:05:15;;;;;;;4.75;3.28;;;;;;;14.48;86.00;101499.59;5073026;28;20036;-63
2022/07/29 02:07:42;;;;;;;6.80;3.45;;;;;;;14.28;86.76;101496.94;5072759;28;20391;-63
2022/07/29 02:10:10;;;;;;;6.53;3.17;;;;;;;14.19;89.98;101506.19;5072811;28;20061;-64
2022/07/29 02:12:37;;;;;;;5.55;2.83;;;;;;;14.19;90.19;101508.88;5072909;28;20181;-63
2022/07/29 02:15:05;;;;;;;6.85;3.63;;;;;;;14.20;90.81;101505.16;5072922;28;20032;-63
2022/07/29 02:17:40;;;;;;;5.70;3.22;;;;;;;14.12;90.67;101495.47;5072101;28;20028;-64
2022/07/29 02:20:08;;;;;;;8.30;3.50;;;;;;;13.90;91.87;101491.28;5072837;28;20027;-64
2022/07/29 02:22:37;;;;;;;6.32;3.50;;;;;;;13.79;92.98;101490.03;5072514;28;20033;-65
2022/07/29 02:25:03;;;;;;;6.25;3.08;;;;;;;13.70;92.80;101473.31;5072187;28;20024;-64
2022/07/29 02:27:29;;;;;;;5.95;2.80;;;;;;;13.63;92.87;101472.47;5072675;28;20028;-64
2022/07/29 02:29:58;;;;;;;6.30;3.00;;;;;;;13.70;93.78;101485.88;5072321;28;20526;-63
2022/07/29 02:32:25;;;;;;;5.10;2.92;;;;;;;13.75;92.58;101492.31;5072361;28;20059;-64
2022/07/29 02:34:52;;;;;;;8.02;4.22;;;;;;;13.83;92.87;101488.59;5072021;28;20537;-63
2022/07/29 02:37:19;;;;;;;7.72;3.40;;;;;;;13.87;92.60;101465.72;5072314;28;20081;-64
2022/07/29 02:39:46;;;;;;;6.90;3.08;;;;;;;13.92;92.90;101462.44;5072370;28;20142;-64
2022/07/29 02:42:17;;;;;;;8.43;4.05;;;;;;;13.95;92.82;101457.47;5072385;28;20017;-64
2022/07/29 02:44:43;;;;;;;11.45;4.18;;;;;;;13.99;93.42;101466.78;5072249;28;20103;-64
2022/07/29 02:47:20;;;;;;;4.35;3.50;;;;;;;14.03;92.82;101473.38;5072257;28;20591;-63
2022/07/29 02:50:21;;;;;;;7.30;4.28;;;;;;;14.07;92.46;101476.47;5072172;28;20024;-63
2022/07/29 02:53:00;;;;;;;5.80;3.15;;;;;;;14.11;92.33;101475.03;5069166;28;20139;-64
2022/07/29 02:55:29;;;;;;;8.80;3.83;;;;;;;14.14;93.14;101471.09;5071822;28;20089;-64
2022/07/29 02:58:00;;;;;;;7.30;3.42;;;;;;;14.13;92.29;101456.06;5072046;28;20091;-63
2022/07/29 03:00:28;;;;;;;7.63;4.23;;;;;;;14.13;91.61;101459.56;5071809;28;20506;-64
2022/07/29 03:02:58;;;;;;;5.00;3.50;;;;;;;14.11;91.32;101458.94;5071947;28;20028;-64
2022/07/29 03:05:24;;;;;;;4.72;3.25;;;;;;;14.08;92.81;101466.56;5071977;28;20036;-64
2022/07/29 03:07:54;;;;;;;8.80;4.07;;;;;;;14.10;92.48;101465.34;5071813;28;20038;-64
2022/07/29 03:10:20;;;;;;;5.95;4.10;;;;;;;14.16;93.04;101477.09;5071606;28;20060;-63
2022/07/29 03:12:47;;;;;;;6.90;3.92;;;;;;;14.22;93.73;101473.59;5070785;28;20039;-64
2022/07/29 03:15:13;;;;;;;5.65;3.30;;;;;;;14.25;92.85;101471.34;5071811;28;20372;-64
2022/07/29 03:17:39;;;;;;;8.45;3.90;;;;;;;14.24;92.41;101469.66;5071712;28;20032;-64
2022/07/29 03:20:07;;;;;;;7.35;3.55;;;;;;;14.25;92.93;101474.03;5071007;28;20051;-64
2022/07/29 03:22:32;;;;;;;5.07;3.35;;;;;;;14.28;92.12;101477.31;5071580;28;20032;-64
2022/07/29 03:25:08;;;;;;;5.88;3.50;;;;;;;14.33;94.24;101473.00;5070259;28;20430;-64
2022/07/29 03:27:34;;;;;;;7.03;3.63;;;;;;;14.36;92.50;101474.44;5071363;28;20043;-63
2022/07/29 03:29:59;;;;;;;6.00;3.20;;;;;;;14.43;92.50;101480.59;5071289;28;20135;-64
2022/07/29 03:32:24;;;;;;;6.50;4.60;;;;;;;14.46;92.18;101478.34;5071580;28;20112;-63
2022/07/29 03:34:50;;;;;;;8.57;3.75;;;;;;;14.53;91.94;101477.56;5071501;28;20041;-64
2022/07/29 03:37:15;;;;;;;6.90;4.05;;;;;;;14.50;91.65;101475.25;5070462;28;20039;-64
2022/07/29 03:39:42;;;;;;;7.32;4.28;;;;;;;14.49;92.15;101477.13;5071227;28;20031;-64
2022/07/29 03:42:11;;;;;;;6.97;3.88;;;;;;;14.48;93.21;101484.31;5071322;28;20020;-64
2022/07/29 03:44:38;;;;;;;6.53;3.33;;;;;;;14.45;92.78;101470.50;5071252;28;20028;-64
2022/07/29 03:47:06;;;;;;;5.38;3.60;;;;;;;14.58;93.09;101485.81;5070817;28;20075;-64
2022/07/29 03:49:34;;;;;;;4.70;3.58;;;;;;;14.59;94.00;101498.19;5071036;28;20056;-64
2022/07/29 03:52:00;;;;;;;6.03;3.60;;;;;;;14.60;94.50;101507.91;5071134;28;20032;-64
2022/07/29 03:54:26;;;;;;;11.93;5.45;;;;;;;14.59;93.75;101506.25;5070897;28;20028;-64
2022/07/29 03:56:52;;;;;;;4.13;3.13;;;;;;;14.59;93.65;101499.03;5070878;28;20526;-64
2022/07/29 03:59:19;;;;;;;6.05;3.97;;;;;;;14.60;93.71;101492.63;5070972;28;20394;-64
2022/07/29 04:01:46;;;;;;;6.72;3.63;;;;;;;14.60;93.29;101491.81;5070956;28;20039;-67
2022/07/29 04:04:11;;;;;;;6.35;4.13;;;;;;;14.59;92.69;101484.75;5070754;28;20045;-67
2022/07/29 04:06:41;;;;;;;5.95;4.07;;;;;;;14.66;93.16;101485.59;5070886;28;20033;-67
2022/07/29 04:09:07;;;;;;;6.60;3.63;;;;;;;14.64;92.98;101474.22;5070585;28;20032;-67
2022/07/29 04:11:33;;;;;;;10.32;3.97;;;;;;;14.66;91.93;101461.44;5070536;28;20369;-67
2022/07/29 04:13:58;;;;;;;5.65;3.17;;;;;;;14.66;92.14;101482.91;5070586;28;20036;-67
2022/07/29 04:16:24;;;;;;;3.97;2.90;;;;;;;14.56;92.08;101487.88;5070320;28;20075;-68
2022/07/29 04:18:49;;;;;;;4.35;3.05;;;;;;;14.47;92.31;101482.69;5070294;28;20035;-68
2022/07/29 04:21:14;;;;;;;6.88;4.07;;;;;;;14.44;92.90;101488.47;5069692;28;20032;-68
2022/07/29 04:23:40;;;;;;;9.15;4.13;;;;;;;14.43;93.86;101485.97;5070282;28;20036;-68
2022/07/29 04:26:09;;;;;;;8.38;3.38;;;;;;;14.41;94.45;101488.88;5070235;28;20086;-68
2022/07/29 04:28:34;;;;;;;10.07;4.80;;;;;;;14.38;93.95;101491.13;5069908;28;20126;-68
2022/07/29 04:31:00;;;;;;;5.38;3.88;;;;;;;14.33;94.23;101485.56;5070149;28;20116;-68
2022/07/29 04:33:25;;;;;;;5.53;4.15;;;;;;;14.30;93.33;101481.44;5068871;28;20119;-67
2022/07/29 04:35:51;;;;;;;4.85;3.58;;;;;;;14.24;93.97;101480.41;5070128;28;20150;-67
2022/07/29 04:38:16;;;;;;;5.70;3.50;;;;;;;14.25;93.85;101482.06;5069450;28;20047;-67
2022/07/29 04:40:41;;;;;;;9.10;3.72;;;;;;;14.24;93.70;101491.13;5069752;28;20020;-67
2022/07/29 04:43:07;;;;;;;7.10;3.33;;;;;;;14.28;93.51;101501.44;5070104;28;20119;-67
2022/07/29 04:45:32;;;;;;;10.27;4.90;;;;;;;14.32;94.67;101514.25;5070067;28;20036;-68
2022/07/29 04:47:57;;;;;;;9.20;3.65;;;;;;;14.36;95.49;101522.75;5069744;28;20032;-68
2022/07/29 04:50:23;;;;;;;12.02;5.32;;;;;;;14.40;94.89;101523.97;5069583;28;20028;-68
2022/07/29 04:52:48;;;;;;;7.20;3.58;;;;;;;14.40;94.73;101519.41;5069581;28;20032;-68
2022/07/29 04:55:14;;;;;;;6.13;4.22;;;;;;;14.38;93.94;101516.13;5069605;28;20033;-67
2022/07/29 04:57:39;;;;;;;11.90;5.15;;;;;;;14.37;94.12;101522.53;5069581;28;20036;-67
2022/07/29 05:00:05;;;;;;;6.65;4.15;;;;;;;14.32;94.56;101508.88;5069710;28;20806;-67
2022/07/29 05:02:30;;;;;;;7.00;3.58;;;;;;;14.33;94.45;101513.25;5069599;28;20060;-67
2022/07/29 05:04:56;;;;;;;7.43;4.57;;;;;;;14.29;93.96;101512.00;5069614;28;20441;-67
2022/07/29 05:07:21;;;;;;;6.53;4.03;;;;;;;14.28;93.51;101520.22;5069619;28;20021;-68
2022/07/29 05:09:47;;;;;;;6.82;4.07;;;;;;;14.20;93.64;101515.88;5069510;28;20032;-64
2022/07/29 05:12:12;;;;;;;8.10;4.47;;;;;;;14.21;93.66;101528.28;5069423;28;20069;-64
2022/07/29 05:14:37;;;;;;;6.97;3.90;;;;;;;14.26;93.20;101536.56;5069508;28;20123;-64
2022/07/29 05:17:03;;;;;;;8.55;3.85;;;;;;;14.30;93.33;101540.47;5069459;28;20115;-63
2022/07/29 05:19:28;;;;;;;6.82;4.28;;;;;;;14.30;93.47;101528.91;5069446;28;20028;-64
2022/07/29 05:21:53;;;;;;;6.82;4.32;;;;;;;14.30;94.18;101528.91;5069296;28;20028;-64
2022/07/29 05:24:19;;;;;;;6.63;4.25;;;;;;;14.25;94.33;101527.69;5069443;28;20487;-64
2022/07/29 05:26:44;;;;;;;8.88;5.05;;;;;;;14.23;94.54;101523.56;5069272;28;20135;-64
2022/07/29 05:29:11;;;;;;;20.38;6.82;;;;;;;14.13;93.78;101521.25;5069143;28;20049;-64
2022/07/29 05:31:36;;;;;;;10.52;4.55;;;;;;;14.22;93.81;101541.47;5069335;28;20024;-64
2022/07/29 05:34:01;;;;;;;8.32;4.88;;;;;;;14.29;92.98;101540.69;5069229;28;20086;-64
2022/07/29 05:36:27;;;;;;;7.18;4.68;;;;;;;14.31;93.17;101531.41;5068862;28;20110;-64
2022/07/29 05:38:52;;;;;;;7.35;4.70;;;;;;;14.39;93.58;101544.63;5068461;28;20036;-64
2022/07/29 05:41:18;;;;;;;6.50;4.82;;;;;;;14.42;92.92;101529.97;5068245;28;20031;-64
2022/07/29 05:43:44;;;;;;;7.07;4.78;;;;;;;14.53;92.79;101533.91;5068940;28;20040;-64
2022/07/29 05:46:09;;;;;;;9.55;4.88;;;;;;;14.56;92.30;101539.69;5068906;28;20020;-64
2022/07/29 05:48:34;;;;;;;10.55;4.40;;;;;;;14.55;92.23;101540.75;5069088;28;20047;-64
2022/07/29 05:51:00;;;;;;;7.03;5.07;;;;;;;14.52;92.07;101534.94;5069262;28;20064;-64
2022/07/29 05:53:25;;;;;;;9.20;5.45;;;;;;;14.52;93.16;101540.31;5069067;28;20036;-64
2022/07/29 05:55:51;;;;;;;8.27;5.00;;;;;;;14.54;91.56;101543.63;5069144;28;20036;-64
2022/07/29 05:58:17;;;;;;;8.95;4.03;;;;;;;14.56;92.10;101547.75;5068798;28;20048;-64
2022/07/29 06:00:42;;;;;;;10.63;5.55;;;;;;;14.58;91.52;101551.06;5068746;28;20028;-64
2022/07/29 06:03:08;;;;;;;11.77;5.38;;;;;;;14.61;92.12;101552.50;5068931;28;20043;-64
2022/07/29 06:05:33;;;;;;;8.63;5.13;;;;;;;14.60;91.75;101549.00;5068938;28;20021;-64
2022/07/29 06:07:59;;;;;;;10.40;5.50;;;;;;;14.59;92.06;101530.41;5069021;28;20162;-64
2022/07/29 06:10:24;;;;;;;12.02;5.82;;;;;;;14.59;91.76;101527.72;5068697;28;20486;-64
2022/07/29 06:12:50;;;;;;;8.50;4.75;;;;;;;14.57;91.84;101530.63;5068833;28;20102;-63
2022/07/29 06:15:15;;;;;;;9.20;5.00;;;;;;;14.58;91.48;101537.63;5068686;28;20047;-64
2022/07/29 06:17:40;;;;;;;9.82;5.03;;;;;;;14.57;91.04;101540.53;5068703;28;20040;-64
2022/07/29 06:20:06;;;;;;;10.25;5.97;;;;;;;14.58;91.97;101537.63;5068683;28;20539;-68
2022/07/29 06:22:32;;;;;;;9.40;5.47;;;;;;;14.66;91.42;101542.78;5068731;28;20032;-67
2022/07/29 06:24:57;;;;;;;7.95;5.53;;;;;;;14.71;91.75;101544.88;5067359;28;20028;-67
2022/07/29 06:27:22;;;;;;;7.03;5.47;;;;;;;14.72;90.72;101543.00;5068543;28;20033;-67
2022/07/29 06:29:48;;;;;;;11.25;5.68;;;;;;;14.77;90.55;101544.03;5068532;28;20053;-67
2022/07/29 06:32:13;;;;;;;9.10;5.55;;;;;;;14.84;89.93;101544.03;5068789;28;20028;-67
2022/07/29 06:34:38;;;;;;;12.05;5.97;;;;;;;14.85;89.56;101551.88;5068853;28;20024;-68
2022/07/29 06:37:08;;;;;;;9.73;5.05;;;;;;;14.88;90.55;101553.31;5068649;28;20040;-66
2022/07/29 06:39:37;;;;;;;11.15;5.13;;;;;;;14.91;89.54;101555.63;5068479;28;20092;-72
2022/07/29 06:42:04;;;;;;;7.05;4.45;;;;;;;14.95;89.92;101547.94;5068441;28;20052;-69
2022/07/29 06:44:29;;;;;;;8.02;4.57;;;;;;;14.98;89.14;101552.91;5066882;28;20036;-68
2022/07/29 06:46:55;;;;;;;10.40;4.65;;;;;;;15.01;88.29;101547.09;5065897;28;20017;-73
2022/07/29 06:49:21;;;;;;;8.13;4.75;;;;;;;15.02;88.71;101546.91;5068153;28;20486;-68
2022/07/29 06:51:47;;;;;;;7.72;5.03;;;;;;;15.07;88.37;101552.47;5072227;28;20024;-63
2022/07/29 06:54:12;;;;;;;7.65;4.43;;;;;;;15.08;86.97;101538.00;5072057;28;20036;-63
2022/07/29 06:56:40;;;;;;;7.22;4.85;;;;;;;15.14;86.87;101541.72;5071977;28;20024;-63
2022/07/29 06:59:08;;;;;;;7.80;4.63;;;;;;;15.15;87.87;101542.56;5071952;28;20035;-63
2022/07/29 07:01:34;;;;;;;9.35;5.00;;;;;;;15.18;87.29;101536.75;5071927;28;20570;-63
2022/07/29 07:04:00;;;;;;;8.43;5.13;;;;;;;15.20;86.00;101535.50;5071854;28;20111;-65
2022/07/29 07:06:25;;;;;;;7.15;4.15;;;;;;;15.27;86.43;101535.47;5071763;28;20120;-65
2022/07/29 07:08:50;;;;;;;5.95;4.65;;;;;;;15.30;85.95;101546.66;5071658;28;20036;-65
2022/07/29 07:11:16;;;;;;;10.98;4.80;;;;;;;15.30;84.44;101552.03;5071801;28;20040;-65
2022/07/29 07:13:41;;;;;;;12.27;6.03;;;;;;;15.29;84.88;101558.41;5070201;28;20430;-65
2022/07/29 07:16:06;;;;;;;8.88;5.40;;;;;;;15.25;85.86;101543.78;5071611;28;20048;-65
2022/07/29 07:18:32;;;;;;;11.93;5.90;;;;;;;15.34;85.52;101550.56;5071643;28;20031;-65
2022/07/29 07:20:57;;;;;;;8.15;5.05;;;;;;;15.39;86.04;101551.81;5071681;28;20037;-65
2022/07/29 07:23:23;;;;;;;7.97;5.22;;;;;;;15.38;84.78;101547.44;5071498;28;20139;-65
2022/07/29 07:25:48;;;;;;;10.77;5.85;;;;;;;15.46;84.68;101541.84;5071553;28;20040;-65
2022/07/29 07:28:14;;;;;;;14.50;5.28;;;;;;;15.54;85.41;101552.38;5071111;28;20044;-65
2022/07/29 07:30:40;;;;;;;8.57;5.18;;;;;;;15.55;85.49;101554.00;5071313;28;20029;-65
2022/07/29 07:33:05;;;;;;;9.35;5.30;;;;;;;15.55;85.90;101552.13;5071399;28;20040;-67
2022/07/29 07:35:30;;;;;;;9.48;5.82;;;;;;;15.55;84.43;101544.06;5071199;28;20400;-65
2022/07/29 07:37:56;;;;;;;11.27;5.55;;;;;;;15.62;84.66;101549.44;5071281;28;20365;-65
2022/07/29 07:40:22;;;;;;;10.15;5.53;;;;;;;15.67;85.18;101551.50;5071211;28;20115;-65
2022/07/29 07:42:48;;;;;;;10.55;5.18;;;;;;;15.69;84.88;101566.41;5071283;28;20153;-64
2022/07/29 07:45:13;;;;;;;10.60;6.03;;;;;;;15.74;84.87;101568.44;5070763;28;20059;-64
2022/07/29 07:47:39;;;;;;;10.25;5.72;;;;;;;15.74;85.10;101557.69;5071067;28;20063;-65
2022/07/29 07:50:11;;;;;;;10.43;5.13;;;;;;;15.85;86.59;101575.00;5071017;28;20028;-65
2022/07/29 07:52:47;;;;;;;11.38;5.97;;;;;;;15.90;84.81;101572.50;5070758;28;20032;-64
2022/07/29 07:55:12;;;;;;;8.07;5.97;;;;;;;15.95;84.14;101576.22;5070998;28;20031;-64
2022/07/29 07:57:37;;;;;;;11.43;5.63;;;;;;;16.01;84.06;101569.16;5070733;28;20044;-64
2022/07/29 08:00:04;;;;;;;10.13;5.63;;;;;;;16.13;82.90;101577.38;5070421;28;20060;-65
2022/07/29 08:02:29;;;;;;;8.60;5.40;;;;;;;16.23;83.36;101572.34;5070289;28;20047;-65
2022/07/29 08:04:54;;;;;;;10.60;6.68;;;;;;;16.34;82.93;101573.50;5070881;28;20028;-64
2022/07/29 08:07:20;;;;;;;10.38;6.03;;;;;;;16.41;82.75;101577.00;5070812;28;20428;-65
2022/07/29 08:09:45;;;;;;;18.00;6.63;;;;;;;16.50;81.77;101585.63;5070684;28;20456;-65
2022/07/29 08:12:11;;;;;;;11.60;5.88;;;;;;;16.55;81.85;101585.78;5070527;28;20047;-64
2022/07/29 08:14:36;;;;;;;9.95;5.15;;;;;;;16.93;80.02;101588.44;5070568;28;20029;-65
2022/07/29 08:17:01;;;;;;;10.35;5.78;;;;;;;18.16;77.13;101584.78;5070247;28;20115;-65
2022/07/29 08:19:27;;;;;;;8.05;4.13;;;;;;;20.59;69.20;101582.53;5070393;28;20178;-65
2022/07/29 08:21:53;;;;;;;12.05;5.55;;;;;;;22.86;60.46;101582.31;5070491;28;20039;-64
2022/07/29 08:27:02;;;;;;;7.70;4.90;;;;;;;26.24;48.51;101586.03;5070477;28;20487;-65
2022/07/29 08:29:28;;;;;;;6.35;4.18;;;;;;;27.08;45.63;101591.34;5070012;28;20068;-65
2022/07/29 08:31:53;;;;;;;4.88;4.07;;;;;;;27.25;43.45;101578.06;5068881;28;20044;-65
2022/07/29 08:34:18;;;;;;;5.75;3.78;;;;;;;27.97;43.39;101577.16;5070170;28;20029;-69
2022/07/29 08:36:43;;;;;;;13.40;5.53;;;;;;;28.68;41.17;101588.13;5070178;28;20028;-69
2022/07/29 08:39:09;;;;;;;8.88;4.20;;;;;;;28.88;40.80;101576.78;5070065;28;20024;-70
2022/07/29 08:41:35;;;;;;;8.57;4.90;;;;;;;28.95;40.62;101582.72;5066491;28;20032;-67
2022/07/29 08:44:00;;;;;;;9.43;5.10;;;;;;;28.84;39.91;101581.25;5069372;28;20618;-66
2022/07/29 08:46:26;;;;;;;6.82;4.68;;;;;;;29.18;39.41;101569.91;5054016;28;20033;-65
2022/07/29 08:48:51;;;;;;;6.68;4.32;;;;;;;29.53;38.14;101572.22;5067953;28;20028;-65
2022/07/29 08:51:19;;;;;;;11.20;5.25;;;;;;;29.89;38.84;101577.78;5069731;28;20025;-65
2022/07/29 08:53:48;;;;;;;12.43;5.75;;;;;;;30.36;37.70;101573.66;5069627;28;20025;-65
2022/07/29 08:56:17;;;;;;;8.65;4.55;;;;;;;30.79;36.85;101578.63;5069809;28;20437;-67
2022/07/29 08:58:43;;;;;;;10.48;4.85;;;;;;;31.21;35.60;101568.16;5064903;28;20039;-65
2022/07/29 09:01:11;;;;;;;7.82;3.83;;;;;;;31.45;35.24;101569.69;5065187;28;20040;-67
2022/07/29 09:03:39;;;;;;;4.38;3.92;;;;;;;30.27;37.03;101574.75;5065604;28;20032;-67
2022/07/29 09:06:05;;;;;;;5.72;4.00;;;;;;;28.24;40.61;101570.16;5067267;28;20032;-67
2022/07/29 09:08:32;;;;;;;4.95;3.88;;;;;;;26.36;43.96;101578.31;5069607;28;20021;-67
2022/07/29 09:10:59;;;;;;;11.73;5.20;;;;;;;24.88;46.38;101574.25;5051090;28;20428;-67
2022/07/29 09:13:25;;;;;;;8.13;4.60;;;;;;;23.66;50.43;101571.31;5069454;28;20039;-68
2022/07/29 09:15:51;;;;;;;8.68;4.65;;;;;;;23.06;53.15;101566.16;5069527;28;20032;-67
2022/07/29 09:18:36;;;;;;;9.20;5.63;;;;;;;22.61;53.53;101574.75;5069525;28;20024;-67
2022/07/29 09:24:03;;;;;;;13.02;6.30;;;;;;;21.83;56.64;101573.19;5068970;28;20074;-70
2022/07/29 09:26:30;;;;;;;10.38;5.47;;;;;;;21.72;59.40;101576.88;5069080;28;20857;-68
2022/07/29 09:28:56;;;;;;;8.23;4.80;;;;;;;21.70;57.82;101576.28;5068911;28;20106;-68
2022/07/29 09:31:34;;;;;;;9.45;5.45;;;;;;;21.66;57.21;101570.53;5069173;28;20076;-68
2022/07/29 09:34:00;;;;;;;6.75;3.85;;;;;;;21.64;58.97;101575.41;5069003;28;20113;-70
2022/07/29 09:36:26;;;;;;;10.27;5.00;;;;;;;21.63;60.29;101586.53;5069165;28;20472;-71
2022/07/29 09:39:03;;;;;;;7.78;4.32;;;;;;;21.67;58.91;101582.25;5069068;28;20039;-70
2022/07/29 09:41:29;;;;;;;10.98;5.65;;;;;;;21.76;57.83;101586.13;5069092;28;20024;-68
2022/07/29 09:43:58;;;;;;;6.05;4.20;;;;;;;21.71;57.28;101588.78;5069009;28;20055;-69
2022/07/29 09:46:25;;;;;;;7.45;4.40;;;;;;;21.75;57.12;101580.97;5069016;28;20059;-69
2022/07/29 09:49:10;;;;;;;8.32;5.07;;;;;;;21.65;57.32;101581.66;5068803;28;20051;-68
2022/07/29 09:51:36;;;;;;;8.57;3.92;;;;;;;21.72;58.87;101585.03;5067660;28;20103;-68
2022/07/29 09:54:20;;;;;;;6.93;4.25;;;;;;;21.74;56.23;101588.28;5069135;28;20040;-68
2022/07/29 09:56:47;;;;;;;5.80;3.80;;;;;;;21.74;56.08;101584.75;5069154;28;20436;-68
2022/07/29 09:59:12;;;;;;;7.63;4.05;;;;;;;21.74;55.99;101577.41;5068588;28;20028;-68
2022/07/29 10:01:37;;;;;;;6.38;4.22;;;;;;;21.81;55.68;101578.03;5069037;28;20911;-68
2022/07/29 10:04:03;;;;;;;9.15;4.97;;;;;;;21.84;56.15;101585.69;5069037;28;20040;-68
2022/07/29 10:06:28;;;;;;;7.10;5.00;;;;;;;21.99;57.95;101590.47;5068980;28;20025;-68
2022/07/29 10:09:07;;;;;;;10.88;4.45;;;;;;;22.17;57.29;101586.59;5068848;28;20036;-68
2022/07/29 10:11:33;;;;;;;7.07;3.88;;;;;;;22.26;56.26;101584.25;5068908;28;20098;-68
2022/07/29 10:13:58;;;;;;;6.85;4.03;;;;;;;22.24;56.25;101581.81;5068785;28;20024;-68
2022/07/29 10:16:25;;;;;;;4.75;3.92;;;;;;;22.36;56.80;101578.09;5069012;28;20048;-68
2022/07/29 10:18:50;;;;;;;9.00;4.15;;;;;;;22.43;54.89;101581.44;5068800;28;20025;-68
2022/07/29 10:21:16;;;;;;;6.60;3.90;;;;;;;22.40;54.84;101574.63;5068840;28;20040;-68
2022/07/29 10:23:43;;;;;;;8.25;4.88;;;;;;;22.41;56.05;101589.03;5072308;28;20024;-68
2022/07/29 10:26:10;;;;;;;10.23;4.80;;;;;;;22.42;55.54;101569.72;5072770;28;20036;-68
2022/07/29 10:28:35;;;;;;;7.53;4.20;;;;;;;22.57;56.77;101569.03;5072192;28;20460;-68
2022/07/29 10:31:05;;;;;;;11.65;4.45;;;;;;;22.70;56.73;101563.16;5072468;28;20072;-71
2022/07/29 10:33:57;;;;;;;6.93;3.90;;;;;;;22.82;55.60;101564.88;5072552;28;20141;-68
2022/07/29 10:36:25;;;;;;;9.10;4.78;;;;;;;22.88;53.29;101566.56;5072451;28;20103;-68
2022/07/29 10:39:11;;;;;;;10.48;3.92;;;;;;;22.96;56.22;101563.34;5072405;28;20086;-68
2022/07/29 10:41:52;;;;;;;12.43;4.28;;;;;;;23.00;56.83;101552.78;5072413;28;20033;-67
2022/07/29 10:44:23;;;;;;;5.50;3.93;;;;;;;22.96;52.22;101566.06;5072351;28;20423;-68
2022/07/29 10:46:50;;;;;;;8.80;5.30;;;;;;;22.95;55.03;101562.53;5072378;28;20274;-68
2022/07/29 10:49:17;;;;;;;5.88;3.60;;;;;;;23.07;55.56;101567.78;5072110;28;20483;-68
2022/07/29 10:52:05;;;;;;;6.72;4.40;;;;;;;23.10;53.50;101567.25;5071587;28;20090;-69
2022/07/29 10:54:51;;;;;;;9.50;4.93;;;;;;;23.06;53.97;101566.16;5072101;28;20526;-70
2022/07/29 10:57:25;;;;;;;8.77;4.05;;;;;;;23.04;53.95;101567.50;5072285;28;20064;-69
2022/07/29 11:00:14;;;;;;;10.18;4.28;;;;;;;22.88;53.47;101545.59;5072021;28;20039;-69
2022/07/29 11:02:39;;;;;;;8.90;4.43;;;;;;;22.95;50.09;101562.53;5071884;28;20499;-69
2022/07/29 11:05:16;;;;;;;5.47;3.43;;;;;;;23.05;52.71;101567.22;5071807;28;20020;-69
2022/07/29 11:08:11;;;;;;;5.70;3.63;;;;;;;23.19;51.97;101559.44;5071908;28;20036;-69
2022/07/29 11:10:37;;;;;;;7.97;4.18;;;;;;;23.21;51.59;101559.97;5070958;28;20127;-69
2022/07/29 11:13:02;;;;;;;8.30;3.92;;;;;;;23.37;53.72;101558.13;5071859;28;20032;-69
2022/07/29 11:15:28;;;;;;;7.88;4.28;;;;;;;23.33;52.25;101559.78;5071793;28;20024;-69
2022/07/29 11:18:00;;;;;;;7.47;3.92;;;;;;;23.36;51.74;101551.06;5071808;28;20067;-69
2022/07/29 11:20:38;;;;;;;6.65;3.30;;;;;;;23.34;51.25;101556.78;5071816;28;20028;-69
2022/07/29 11:23:29;;;;;;;5.25;3.63;;;;;;;23.30;50.73;101554.88;5071707;28;20036;-69
2022/07/29 11:26:13;;;;;;;8.67;3.63;;;;;;;23.36;54.88;101548.34;5071572;28;20032;-69
2022/07/29 11:28:53;;;;;;;7.45;3.88;;;;;;;23.50;53.24;101557.69;5069858;28;20056;-69
2022/07/29 11:31:42;;;;;;;10.48;4.45;;;;;;;23.63;51.12;101554.47;5071550;28;20071;-70
2022/07/29 11:34:29;;;;;;;22.63;4.68;;;;;;;23.69;51.18;101555.28;5070842;28;20433;-69